• Join FlightAware (Why Join?)
  • Login
  • US Flag 
07:31AM EDT


 

Airport Tracker/Info


-or-


 

Live Flight TrackerFlight Track Log ✈ SKW6195 ✈ 23 Sep 2013 ✈ KDEN - KBZN

Flight Track Log - Related Links

Times and Time Zones

All times are in EDT time to prevent confusion due to time zone crossing. See the SKW6195 flight status page for this flight to view local times or setup timezone preferences in your user account.

Time Position Orientation Groundspeed Altitude Reporting Facility
EDT Latitude Longitude Course Direction KTS MPH feet Rate Location/Type
01:46PM 39.9500 -104.6833 346° North 205 236 8,300  Level Denver TRACON
01:47PM 40.0167 -104.6667 11° North 263 303 9,900 2,100 Climbing Denver TRACON
01:48PM 40.1000 -104.6667 360° North 249 287 12,600 1,980 Climbing Denver TRACON
01:49PM 40.2087 -105.0112 348° North  Level Estimated
01:49PM 40.1667 -104.6833 349° North 266 306 13,900  Level Denver TRACON
01:50PM 40.2953 -105.0963 346° North  Level Estimated
01:50PM 40.2333 -104.7000 349° North 265 305 14,400  Level Denver TRACON
01:51PM 40.4022 -105.0740 North  Level FlightAware Approximate
01:51PM 40.2986 -104.7222 345° North 310 357 16,100  Level Denver Center
01:52PM 40.4880 -105.1606 346° North  Level Estimated
01:52PM 40.3864 -104.7467 348° North 322 371 17,400  Level Denver Center
01:53PM 40.4797 -104.7703 349° North 339 390 18,700 1,200 Climbing Denver Center
01:54PM 40.5811 -104.7978 348° North 347 399 19,900 1,020 Climbing Denver Center
01:55PM 40.6803 -104.8222 349° North 354 407 20,900 900 Climbing Denver Center
01:56PM 40.7767 -104.8472 349° North 352 405 21,800 780 Climbing Denver Center
01:57PM 40.8731 -104.8897 342° North 361 415 22,600 720 Climbing Denver Center
01:58PM 40.9700 -104.9389 339° North 372 428 23,400 720 Climbing Denver Center
01:59PM 41.0847 -104.9964 339° North 381 438 24,100 540 Climbing Denver Center
02:00PM 41.1825 -105.0439 340° North 389 448 24,600 420 Climbing Denver Center
02:01PM 41.2994 -105.1019 340° North 399 459 25,000 420 Climbing Denver Center
02:02PM 41.4011 -105.1536 339° North 407 468 25,500 480 Climbing Denver Center
02:03PM 41.5214 -105.2144 339° North 413 475 26,100 480 Climbing Denver Center
02:04PM 41.6086 -105.3014 323° Northwest 428 493 26,600 480 Climbing Denver Center
02:05PM 41.6939 -105.4356 310° West 425 489 27,100 480 Climbing Denver Center
02:06PM 41.7689 -105.5506 311° West 426 490 27,600 480 Climbing Denver Center
02:07PM 41.8561 -105.6836 311° West 426 490 28,200 540 Climbing Denver Center
02:08PM 41.9286 -105.7986 310° West 424 488 28,800 540 Climbing Denver Center
02:09PM 42.0031 -105.9139 311° West 426 490 29,400 540 Climbing Denver Center
02:10PM 42.0875 -106.0481 310° West 421 484 30,000 480 Climbing Denver Center
02:11PM 42.1600 -106.1639 310° West 422 486 30,500 480 Climbing Denver Center
02:12PM 42.2467 -106.2997 311° West 426 490 31,000 480 Climbing Denver Center
02:14PM 42.3186 -106.4158 310° West 423 487 31,500 480 Climbing Denver Center
02:15PM 42.4053 -106.5522 311° West 426 490 32,000 240 Climbing Denver Center
02:16PM 42.4767 -106.6694 310° West 422 486 32,000  Level Denver Center
02:17PM 42.5619 -106.8069 310° West 426 490 32,000  Level Denver Center
02:18PM 42.6331 -106.9211 310° West 416 479 32,000  Level Denver Center
02:19PM 42.7150 -107.0531 310° West 409 471 32,000  Level Denver Center
02:20PM 42.7897 -107.1753 310° West 403 464 32,000  Level Denver Center
02:21PM 42.8531 -107.2800 310° West 396 456 32,000  Level Denver Center
02:22PM 42.9186 -107.3897 309° West 391 450 32,000  Level Salt Lake Center
02:23PM 42.9836 -107.4975 310° West 393 452 32,000  Level Salt Lake Center
02:24PM 43.0522 -107.6111 310° West 390 449 32,000  Level Salt Lake Center
02:25PM 43.1217 -107.7269 309° West 393 452 32,000  Level Salt Lake Center
02:26PM 43.1903 -107.8422 309° West 392 451 32,000  Level Salt Lake Center
02:27PM 43.2736 -107.9828 309° West 395 455 32,000  Level Salt Lake Center
02:28PM 43.3422 -108.0983 309° West 392 451 32,000  Level Salt Lake Center
02:29PM 43.4111 -108.2136 309° West 391 450 32,000  Level Salt Lake Center
02:30PM 43.4831 -108.3267 311° West 392 451 32,000  Level Salt Lake Center
02:31PM 43.5650 -108.4211 320° Northwest 386 444 32,000  Level Salt Lake Center
02:32PM 43.6467 -108.5178 319° Northwest 386 444 32,000  Level Salt Lake Center
02:33PM 43.7439 -108.6319 320° Northwest 383 441 32,000  Level Salt Lake Center
02:34PM 43.8239 -108.7253 320° Northwest 379 436 32,000 -60 Level Salt Lake Center
02:35PM 43.9042 -108.8211 319° Northwest 381 438 31,900  Descending Salt Lake Center
02:36PM 43.9833 -108.9144 320° Northwest 374 430 32,000  Climbing Salt Lake Center
02:37PM 44.0622 -109.0089 319° Northwest 373 429 32,000  Level Salt Lake Center
02:38PM 44.1419 -109.1039 319° Northwest 377 434 32,100  Climbing Salt Lake Center
02:39PM 44.2331 -109.2147 319° Northwest 364 419 32,000 -60 Descending Salt Lake Center
02:40PM 44.3117 -109.3097 319° Northwest 372 428 32,000  Level Salt Lake Center
02:41PM 44.3900 -109.4025 320° Northwest 369 425 32,000  Level Salt Lake Center
02:42PM 44.4719 -109.5019 319° Northwest 368 423 32,000  Level Salt Lake Center
02:43PM 44.5456 -109.5911 319° Northwest 367 422 32,000  Level Salt Lake Center
02:44PM 44.6186 -109.6839 318° Northwest 363 418 32,000 -480 Level Salt Lake Center
02:45PM 44.6950 -109.7764 319° Northwest 362 417 31,100 -2,160 Descending Salt Lake Center
02:46PM 44.7831 -109.8864 318° Northwest 355 409 27,600 -3,060 Descending Salt Lake Center
02:47PM 44.8547 -109.9736 319° Northwest 356 410 24,800 -3,000 Descending Salt Lake Center
02:48PM 44.9372 -110.0761 319° Northwest 354 407 21,400 -2,340 Descending Salt Lake Center
02:50PM 45.0050 -110.1611 318° Northwest 343 395 20,000 -720 Descending Salt Lake Center
02:51PM 45.0822 -110.2564 319° Northwest 331 381 20,000  Level Salt Lake Center
02:52PM 45.1428 -110.3336 318° Northwest 337 388 20,000 -420 Level Salt Lake Center
02:53PM 45.2278 -110.4392 319° Northwest 338 389 19,200 -1,320 Descending Salt Lake Center
02:54PM 45.2933 -110.5233 318° Northwest 317 365 17,300 -2,220 Descending Salt Lake Center
02:55PM 45.3600 -110.6056 319° Northwest 300 345 14,700 -1,620 Descending Salt Lake Center
02:56PM 45.4192 -110.6844 317° Northwest 287 330 14,000 -840 Descending Salt Lake Center
02:57PM 45.4739 -110.7531 319° Northwest 260 299 13,000 -540 Descending Salt Lake Center
02:58PM 45.5281 -110.8225 318° Northwest 255 293 12,900 -900 Descending Salt Lake Center
02:59PM 45.5808 -110.8897 318° Northwest 252 290 11,200 -1,440 Descending Salt Lake Center
03:00PM 45.6297 -110.9469 321° Northwest 227 261 10,000 -1,800 Descending Salt Lake Center
03:01PM 45.6767 -111.0114 316° Northwest 215 247 7,500 -1,980 Descending Salt Lake Center
03:02PM 45.7164 -111.0667 316° Northwest 196 226 6,000 -1,140 Descending Salt Lake Center
03:03PM 45.7456 -111.1075 316° Northwest 150 173 5,200 -780 Descending Salt Lake Center
03:04PM 45.7728 -111.1458 316° Northwest 145 167 4,500 -720 Descending Salt Lake Center